Midnight Sun — WDG4581 — position and weather

sailwx.info

Track history (hours):
 
Tides and Currents Weather Stations Pressure Air Temp Water Temp Dewpoint Dewpoint Depression Visibility Wind Speed Wind Dir Waves Ship Positions

Midnight Sun

Owner: Findley, Bob, Seattle, WA. More information available from US FCC via Universal Licensing System and Coast Guard Vessel Documentation Center.

Last reported at 2015-Feb-26 21:54 UTC. Time now 2015-Feb-27 22:47 UTC.
Position N 47°39' W 122°22'.

Length 16 m.

Type: Pleasure craft. MMSI: 367538070.

Date/timePositionNaut miles runAvg speedWind from/ knotsBaromVisibWave heightAir tempDewpointWater temp
2015-Feb-26 21:54N 47°39' W 122°22'2 1.2
2015-Feb-26 20:26N 47°38' W 122°20'0 0.3
2015-Feb-26 20:03N 47°38' W 122°20'0 0.0
2015-Feb-26 18:48N 47°38' W 122°20'0 0.2
2015-Feb-26 18:33N 47°38' W 122°20'0 0.4
2015-Feb-26 18:24N 47°38' W 122°20'0 0.0
2015-Feb-26 17:33N 47°38' W 122°20'5 0.1
2015-Feb-24 18:20N 47°40' W 122°14'4 5.1
2015-Feb-24 17:33N 47°39' W 122°20'  
2015-Feb-21 19:22N 47°38' W 122°20'0 0.0
2015-Feb-21 19:21N 47°38' W 122°20'1 0.5
2015-Feb-21 18:14N 47°38' W 122°20'  
2015-Feb-19 00:08N 47°38' W 122°20'0 0.0
2015-Feb-19 00:02N 47°38' W 122°20'2 3.9
2015-Feb-18 23:33N 47°39' W 122°22'1 5.6
2015-Feb-18 23:27N 47°40' W 122°22'2 2.2
2015-Feb-18 22:33N 47°41' W 122°24'2 2.2
2015-Feb-18 21:39N 47°40' W 122°27'1 8.0
2015-Feb-18 21:33N 47°39' W 122°27'1 7.6
2015-Feb-18 21:29N 47°39' W 122°28'2 2.3
2015-Feb-18 20:33N 47°41' W 122°29'0 6.5
2015-Feb-18 20:29N 47°41' W 122°29'3 3.1
2015-Feb-18 19:33N 47°41' W 122°25'1 8.1
2015-Feb-18 19:29N 47°40' W 122°24'  
Track history (hours):
 
Tides and Currents Weather Stations Pressure Air Temp Water Temp Dewpoint Dewpoint Depression Visibility Wind Speed Wind Dir Waves Ship Positions

Midnight Sun

Owner: Findley, Bob, Seattle, WA. More information available from US FCC via Universal Licensing System and Coast Guard Vessel Documentation Center.

Last reported at 2015-Feb-26 21:54 UTC. Time now 2015-Feb-27 22:47 UTC.
Position N 47°39' W 122°22'.

Length 16 m.

Type: Pleasure craft. MMSI: 367538070.

Date/timePositionNaut miles runAvg speedWind from/ knotsBaromVisibWave heightAir tempDewpointWater temp
2015-Feb-26 21:54N 47°39' W 122°22'2 1.2
2015-Feb-26 20:26N 47°38' W 122°20'0 0.3
2015-Feb-26 20:03N 47°38' W 122°20'0 0.0
2015-Feb-26 18:48N 47°38' W 122°20'0 0.2
2015-Feb-26 18:33N 47°38' W 122°20'0 0.4
2015-Feb-26 18:24N 47°38' W 122°20'0 0.0
2015-Feb-26 17:33N 47°38' W 122°20'5 0.1
2015-Feb-24 18:20N 47°40' W 122°14'4 5.1
2015-Feb-24 17:33N 47°39' W 122°20'  
2015-Feb-21 19:22N 47°38' W 122°20'0 0.0
2015-Feb-21 19:21N 47°38' W 122°20'1 0.5
2015-Feb-21 18:14N 47°38' W 122°20'  
2015-Feb-19 00:08N 47°38' W 122°20'0 0.0
2015-Feb-19 00:02N 47°38' W 122°20'2 3.9
2015-Feb-18 23:33N 47°39' W 122°22'1 5.6
2015-Feb-18 23:27N 47°40' W 122°22'2 2.2
2015-Feb-18 22:33N 47°41' W 122°24'2 2.2
2015-Feb-18 21:39N 47°40' W 122°27'1 8.0
2015-Feb-18 21:33N 47°39' W 122°27'1 7.6
2015-Feb-18 21:29N 47°39' W 122°28'2 2.3
2015-Feb-18 20:33N 47°41' W 122°29'0 6.5
2015-Feb-18 20:29N 47°41' W 122°29'3 3.1
2015-Feb-18 19:33N 47°41' W 122°25'1 8.1
2015-Feb-18 19:29N 47°40' W 122°24'  

Dump ship's entire track history